Terminal Aerodrome Forecast
Issued by NWS New Orleans/Baton Rouge, LA

Home | Current Version | Previous Version | Text Only | Print | Product List | Glossary On
Versions: 1 2 3 4 5 6 7 8 9 10 11 12 13 14
188
FTUS44 KLIX 121459 AAB
TAFBTR
TAF AMD
KBTR 121459Z 1215/1312 24006KT 2SM BR OVC003
     FM121545 26006KT 4SM BR BKN006
     FM121700 27009KT P6SM BKN060
     FM122300 30005KT P6SM SCT200=

USA.gov is the U.S. government's official web portal to all federal, state and local government web resources and services.